Time;durP1;ratioP1;P1;durP2;ratioP2;P2;SDS_P1;SDS_P2;PMS_P1;PMS_P2;Temp;Humidity;BMP_temperature;BMP_pressure;BME280_temperature;BME280_humidity;BME280_pressure;Samples;Min_cycle;Max_cycle;Signal;HPM_P1;HPM_P2
2022/01/27 00:01:26;;;;;;;19.98;11.30;;;15.30;72.20;;;;;;4176563;28;20037;-64
2022/01/27 00:04:00;;;;;;;24.27;14.00;;;15.40;72.00;;;;;;4160240;28;20057;-64
2022/01/27 00:06:22;;;;;;;25.13;13.10;;;15.40;71.80;;;;;;4163817;28;20045;-64
2022/01/27 00:08:49;;;;;;;22.73;12.48;;;15.50;71.30;;;;;;4176412;28;20048;-64
2022/01/27 00:11:13;;;;;;;22.58;12.48;;;15.50;71.20;;;;;;4176812;28;20044;-63
2022/01/27 00:13:44;;;;;;;23.30;13.00;;;15.50;71.40;;;;;;4160468;28;20049;-63
2022/01/27 00:16:15;;;;;;;22.80;12.05;;;15.60;71.40;;;;;;4161348;28;20535;-64
2022/01/27 00:18:38;;;;;;;21.13;13.20;;;15.60;71.20;;;;;;4176851;28;20481;-64
2022/01/27 00:21:00;;;;;;;21.75;12.45;;;15.60;71.00;;;;;;4176440;28;20048;-64
2022/01/27 00:23:22;;;;;;;19.35;10.90;;;15.60;70.90;;;;;;4191081;28;20507;-64
2022/01/27 00:25:44;;;;;;;25.90;12.48;;;15.60;70.70;;;;;;4193355;28;20395;-63
2022/01/27 00:28:06;;;;;;;18.98;11.82;;;15.60;70.70;;;;;;4176525;28;20060;-63
2022/01/27 00:30:28;;;;;;;21.08;11.32;;;15.70;70.80;;;;;;4175076;28;20055;-63
2022/01/27 00:32:50;;;;;;;22.67;11.18;;;15.60;70.60;;;;;;4188046;28;20154;-63
2022/01/27 00:35:14;;;;;;;23.15;12.15;;;15.70;70.50;;;;;;4193084;28;20052;-63
2022/01/27 00:37:36;;;;;;;22.73;10.10;;;15.70;70.50;;;;;;4179033;28;20124;-63
2022/01/27 00:39:58;;;;;;;19.20;10.98;;;15.70;70.50;;;;;;4176498;28;20098;-63
2022/01/27 00:42:20;;;;;;;22.85;12.93;;;15.70;70.80;;;;;;4183263;28;20483;-64
2022/01/27 00:44:42;;;;;;;18.45;9.75;;;15.70;70.70;;;;;;4192796;28;20067;-64
2022/01/27 00:47:06;;;;;;;21.50;10.60;;;15.70;70.40;;;;;;4183391;28;20119;-64
2022/01/27 00:49:28;;;;;;;22.35;12.40;;;15.80;70.20;;;;;;4176363;28;20135;-64
2022/01/27 00:51:51;;;;;;;24.88;11.98;;;15.80;70.10;;;;;;4182011;28;20488;-64
2022/01/27 00:54:19;;;;;;;18.60;11.68;;;15.80;70.10;;;;;;4192647;28;20110;-64
2022/01/27 00:56:47;;;;;;;18.45;11.48;;;15.80;70.30;;;;;;4185052;28;20498;-64
2022/01/27 00:59:33;;;;;;;22.17;11.95;;;15.90;69.80;;;;;;4176090;28;20115;-64
2022/01/27 01:02:03;;;;;;;25.08;11.90;;;16.00;69.10;;;;;;4176319;28;20459;-64
2022/01/27 01:04:31;;;;;;;20.45;11.85;;;16.00;68.70;;;;;;4175214;28;20057;-64
2022/01/27 01:06:54;;;;;;;23.08;11.85;;;16.00;68.60;;;;;;4175883;28;20493;-64
2022/01/27 01:14:52;;;;;;;25.20;12.85;;;16.00;68.90;;;;;;4192381;28;20049;-64
2022/01/27 01:17:31;;;;;;;25.13;12.45;;;16.00;68.70;;;;;;4177419;28;20137;-64
2022/01/27 01:20:06;;;;;;;25.90;12.55;;;16.10;68.60;;;;;;4175285;28;20136;-63
2022/01/27 01:30:46;;;;;;;26.02;12.23;;;16.10;68.00;;;;;;4175093;28;20080;-64
2022/01/27 01:33:12;;;;;;;24.50;11.65;;;16.20;67.90;;;;;;4158880;28;20050;-63
2022/01/27 01:35:47;;;;;;;28.20;14.25;;;16.20;67.90;;;;;;4161605;28;20130;-63
2022/01/27 01:38:11;;;;;;;24.73;13.77;;;16.10;67.80;;;;;;4173536;28;20049;-64
2022/01/27 01:40:33;;;;;;;29.88;13.77;;;16.10;67.90;;;;;;4175363;28;20049;-64
2022/01/27 01:42:55;;;;;;;28.48;14.07;;;16.10;68.10;;;;;;4175567;28;20107;-64
2022/01/27 01:45:19;;;;;;;19.67;11.77;;;16.20;67.90;;;;;;4175378;28;20044;-64
2022/01/27 01:47:41;;;;;;;22.75;12.93;;;16.20;67.50;;;;;;4178969;28;20040;-64
2022/01/27 01:50:05;;;;;;;25.85;14.32;;;16.30;67.50;;;;;;4178556;28;20385;-64
2022/01/27 01:52:27;;;;;;;26.77;13.30;;;16.30;67.30;;;;;;4193432;28;20040;-64
2022/01/27 01:54:51;;;;;;;25.88;14.18;;;16.30;67.20;;;;;;4193912;28;20481;-64
2022/01/27 01:57:13;;;;;;;24.17;13.45;;;16.20;67.50;;;;;;4178236;28;20052;-64
2022/01/27 01:59:37;;;;;;;27.05;14.68;;;16.20;67.70;;;;;;4177254;28;20041;-64
2022/01/27 02:01:59;;;;;;;25.45;13.82;;;16.30;67.50;;;;;;4188894;28;20080;-64
2022/01/27 02:04:21;;;;;;;25.73;13.45;;;16.30;67.30;;;;;;4193140;28;20040;-64
2022/01/27 02:06:49;;;;;;;25.50;12.80;;;16.30;67.30;;;;;;4180686;28;20359;-64
2022/01/27 02:09:20;;;;;;;27.85;13.77;;;16.30;67.10;;;;;;4178438;28;20132;-64
2022/01/27 02:19:45;;;;;;;29.70;14.10;;;16.10;67.90;;;;;;4177934;28;20134;-64
2022/01/27 02:22:08;;;;;;;28.35;15.73;;;16.10;67.90;;;;;;4192024;28;20106;-64
2022/01/27 02:24:32;;;;;;;20.48;12.70;;;16.10;67.60;;;;;;4194881;28;20056;-64
2022/01/27 02:26:54;;;;;;;25.23;13.75;;;16.10;67.60;;;;;;4179126;28;20480;-64
2022/01/27 02:29:17;;;;;;;24.20;14.55;;;16.10;67.60;;;;;;4178480;28;20136;-64
2022/01/27 02:31:39;;;;;;;26.92;14.13;;;16.10;67.70;;;;;;4188077;28;20040;-64
2022/01/27 02:34:01;;;;;;;24.45;15.50;;;16.10;67.60;;;;;;4188673;28;20056;-64
2022/01/27 02:36:23;;;;;;;30.15;15.98;;;16.20;67.50;;;;;;4178205;28;20049;-63
2022/01/27 02:38:46;;;;;;;18.45;10.60;;;16.20;67.40;;;;;;4178048;28;20373;-63
2022/01/27 02:41:08;;;;;;;25.40;14.40;;;16.20;67.10;;;;;;4177741;28;20544;-63
2022/01/27 02:43:30;;;;;;;25.83;14.68;;;16.20;67.00;;;;;;4178316;28;20115;-64
2022/01/27 02:45:59;;;;;;;24.23;11.73;;;16.20;67.10;;;;;;4177920;28;20055;-63
2022/01/27 02:48:23;;;;;;;27.25;14.82;;;16.10;67.10;;;;;;4178107;28;20488;-64
2022/01/27 02:50:45;;;;;;;24.27;14.60;;;16.10;67.20;;;;;;4178188;28;20487;-64
2022/01/27 02:53:08;;;;;;;25.85;14.73;;;16.10;67.10;;;;;;4177802;28;20136;-64
2022/01/27 02:55:31;;;;;;;28.23;15.65;;;16.10;67.30;;;;;;4177755;28;20509;-64
2022/01/27 02:57:56;;;;;;;29.23;15.57;;;16.10;67.50;;;;;;4177713;28;20477;-64
2022/01/27 03:00:21;;;;;;;24.45;14.25;;;16.10;68.30;;;;;;4176586;28;20053;-64
2022/01/27 03:02:43;;;;;;;18.65;10.10;;;16.10;67.20;;;;;;4161671;28;20417;-64
2022/01/27 03:05:06;;;;;;;13.98;9.43;;;16.10;67.40;;;;;;4164994;28;20056;-64
2022/01/27 03:07:28;;;;;;;28.80;15.70;;;16.10;67.20;;;;;;4177624;28;20057;-64
2022/01/27 03:09:50;;;;;;;28.90;15.07;;;16.10;67.30;;;;;;4177820;28;20045;-64
2022/01/27 03:12:16;;;;;;;26.85;14.40;;;16.10;68.30;;;;;;4177634;28;20106;-65
2022/01/27 03:14:39;;;;;;;27.60;16.70;;;16.00;67.60;;;;;;4176756;28;20045;-64
2022/01/27 03:17:05;;;;;;;25.55;14.73;;;16.00;67.60;;;;;;4176623;28;20063;-65
2022/01/27 03:19:28;;;;;;;25.08;14.70;;;16.00;67.50;;;;;;4176768;28;20465;-64
2022/01/27 03:21:50;;;;;;;29.40;16.42;;;16.00;67.40;;;;;;4189510;28;20133;-64
2022/01/27 03:24:13;;;;;;;31.52;15.15;;;16.10;67.40;;;;;;4193733;28;20131;-64
2022/01/27 03:26:35;;;;;;;26.65;15.43;;;16.20;67.10;;;;;;4177151;28;20048;-64
2022/01/27 03:28:59;;;;;;;29.70;16.38;;;16.30;66.50;;;;;;4176142;28;20049;-64
2022/01/27 03:31:21;;;;;;;24.35;13.40;;;16.40;65.80;;;;;;4187692;28;20044;-63
2022/01/27 03:33:44;;;;;;;26.45;15.75;;;16.50;65.40;;;;;;4173531;28;20060;-63
2022/01/27 03:36:06;;;;;;;28.88;15.25;;;16.60;65.30;;;;;;4160940;28;20409;-62
2022/01/27 03:38:28;;;;;;;25.80;15.85;;;16.60;65.10;;;;;;4160678;28;20057;-62
2022/01/27 03:40:50;;;;;;;25.02;15.40;;;16.60;65.10;;;;;;4174454;28;20396;-62
2022/01/27 03:43:12;;;;;;;23.42;14.63;;;16.50;65.10;;;;;;4177640;28;20049;-62
2022/01/27 03:45:36;;;;;;;23.70;12.63;;;16.50;65.10;;;;;;4176969;28;20406;-61
2022/01/27 03:47:59;;;;;;;27.73;15.43;;;16.50;66.10;;;;;;4177258;28;20059;-62
2022/01/27 03:50:21;;;;;;;24.30;12.57;;;16.40;65.70;;;;;;4176638;28;20049;-62
2022/01/27 03:52:44;;;;;;;28.33;15.13;;;16.40;65.60;;;;;;4176642;28;20076;-62
2022/01/27 03:55:07;;;;;;;26.10;15.57;;;16.40;65.40;;;;;;4176703;28;20052;-62
2022/01/27 03:57:29;;;;;;;23.88;16.05;;;16.40;65.50;;;;;;4176449;28;20099;-61
2022/01/27 03:59:51;;;;;;;21.67;12.85;;;16.40;65.40;;;;;;4176113;28;20056;-62
2022/01/27 04:02:16;;;;;;;30.52;14.52;;;16.30;65.40;;;;;;4160160;28;20073;-62
2022/01/27 04:04:38;;;;;;;24.08;13.25;;;16.30;65.60;;;;;;4160321;28;20087;-62
2022/01/27 04:07:02;;;;;;;20.17;12.25;;;16.20;65.60;;;;;;4159928;28;20052;-61
2022/01/27 04:09:26;;;;;;;24.40;13.55;;;16.20;65.70;;;;;;4159487;28;20159;-62
2022/01/27 04:11:49;;;;;;;24.17;14.75;;;16.10;66.00;;;;;;4176055;28;20037;-66
2022/01/27 04:14:11;;;;;;;23.77;14.68;;;16.10;66.10;;;;;;4175164;28;20061;-62
2022/01/27 04:16:33;;;;;;;26.25;14.13;;;16.10;67.10;;;;;;4176341;28;20049;-62
2022/01/27 04:18:57;;;;;;;28.25;15.23;;;16.10;66.30;;;;;;4176234;28;20091;-63
2022/01/27 04:21:19;;;;;;;28.52;14.70;;;16.10;66.20;;;;;;4175832;28;20123;-63
2022/01/27 04:23:42;;;;;;;25.65;13.77;;;16.10;66.20;;;;;;4176393;28;20049;-63
2022/01/27 04:26:04;;;;;;;25.40;14.93;;;16.20;67.10;;;;;;4176587;28;20048;-63
2022/01/27 04:28:30;;;;;;;20.05;11.23;;;16.20;65.80;;;;;;4175137;28;20051;-63
2022/01/27 04:30:54;;;;;;;25.17;12.60;;;16.30;65.60;;;;;;4188705;28;20062;-63
2022/01/27 04:33:17;;;;;;;31.77;13.07;;;16.30;65.40;;;;;;4192708;28;20127;-63
2022/01/27 04:35:47;;;;;;;27.25;14.50;;;16.30;65.10;;;;;;4192642;28;20071;-63
2022/01/27 04:38:20;;;;;;;25.60;14.00;;;16.30;65.00;;;;;;4192472;28;20055;-63
2022/01/27 04:40:50;;;;;;;25.70;14.50;;;16.30;65.10;;;;;;4179886;28;20469;-63
2022/01/27 04:43:20;;;;;;;26.20;14.75;;;16.20;65.30;;;;;;4188604;28;20055;-63
2022/01/27 04:45:50;;;;;;;23.98;13.80;;;16.20;65.50;;;;;;4191939;28;20044;-63
2022/01/27 04:48:13;;;;;;;27.70;13.27;;;16.20;65.60;;;;;;4192803;28;20052;-63
2022/01/27 04:50:35;;;;;;;22.38;13.45;;;16.20;65.50;;;;;;4179992;28;20045;-63
2022/01/27 04:53:00;;;;;;;26.58;13.40;;;16.20;65.60;;;;;;4176374;28;20071;-63
2022/01/27 04:55:23;;;;;;;23.73;12.90;;;16.20;65.50;;;;;;4176223;28;20099;-65
2022/01/27 04:57:46;;;;;;;23.42;11.73;;;16.30;65.40;;;;;;4176063;28;20072;-66
2022/01/27 05:00:12;;;;;;;19.30;12.35;;;16.30;65.30;;;;;;4177123;28;20080;-65
2022/01/27 05:02:40;;;;;;;19.63;11.05;;;16.30;65.30;;;;;;4176095;28;20485;-65
2022/01/27 05:05:03;;;;;;;22.63;12.13;;;16.40;65.20;;;;;;4175644;28;20063;-65
2022/01/27 05:07:41;;;;;;;27.35;12.57;;;16.50;64.70;;;;;;4175632;28;20048;-65
2022/01/27 05:10:11;;;;;;;26.63;13.32;;;16.60;64.20;;;;;;4177936;28;20045;-65
2022/01/27 05:12:39;;;;;;;23.48;11.38;;;16.70;64.00;;;;;;4175662;28;20110;-65
2022/01/27 05:15:01;;;;;;;24.73;10.90;;;16.70;63.90;;;;;;4175685;28;20053;-66
2022/01/27 05:17:23;;;;;;;27.60;13.25;;;16.60;63.90;;;;;;4175687;28;20382;-66
2022/01/27 05:19:47;;;;;;;22.58;11.45;;;16.60;64.10;;;;;;4177695;28;20044;-65
2022/01/27 05:22:09;;;;;;;26.70;12.52;;;16.60;64.30;;;;;;4179570;28;20055;-65
2022/01/27 05:24:31;;;;;;;23.02;12.80;;;16.60;64.20;;;;;;4179103;28;20900;-66
2022/01/27 05:26:55;;;;;;;34.28;16.30;;;16.60;64.10;;;;;;4179290;28;20432;-65
2022/01/27 05:29:17;;;;;;;26.45;13.38;;;16.60;64.00;;;;;;4180904;28;20094;-65
2022/01/27 05:31:39;;;;;;;28.90;11.88;;;16.60;64.20;;;;;;4177860;28;20040;-65
2022/01/27 05:34:01;;;;;;;23.63;11.45;;;16.60;64.20;;;;;;4179148;28;20404;-65
2022/01/27 05:36:23;;;;;;;22.27;12.02;;;16.60;64.40;;;;;;4179687;28;20044;-65
2022/01/27 05:38:45;;;;;;;28.45;13.05;;;16.60;64.50;;;;;;4195719;28;20377;-67
2022/01/27 05:41:07;;;;;;;20.88;12.63;;;16.60;64.50;;;;;;4163502;28;20053;-65
2022/01/27 05:43:33;;;;;;;24.83;13.05;;;16.60;64.60;;;;;;4178709;28;20044;-65
2022/01/27 05:45:55;;;;;;;24.67;10.98;;;16.60;64.80;;;;;;4179041;28;20055;-65
2022/01/27 05:48:17;;;;;;;22.05;11.85;;;16.50;64.80;;;;;;4179256;28;20056;-65
2022/01/27 05:50:39;;;;;;;20.45;11.70;;;16.50;65.00;;;;;;4178694;28;20045;-64
2022/01/27 05:53:02;;;;;;;24.55;11.80;;;16.50;65.30;;;;;;4178970;28;20137;-64
2022/01/27 05:55:24;;;;;;;28.55;12.27;;;16.50;65.40;;;;;;4178795;28;20049;-64
2022/01/27 05:57:46;;;;;;;23.67;11.43;;;16.50;65.40;;;;;;4179101;28;20048;-64
2022/01/27 06:00:11;;;;;;;22.98;11.95;;;16.60;65.30;;;;;;4178452;28;20133;-64
2022/01/27 06:02:33;;;;;;;19.60;10.57;;;16.50;65.20;;;;;;4178139;28;20079;-64
2022/01/27 06:04:55;;;;;;;19.88;10.23;;;16.50;65.10;;;;;;4178842;28;20049;-64
2022/01/27 06:07:17;;;;;;;19.27;10.82;;;16.50;65.30;;;;;;4178699;28;20493;-64
2022/01/27 06:09:39;;;;;;;17.40;9.60;;;16.50;65.50;;;;;;4177865;28;20037;-64
2022/01/27 06:12:02;;;;;;;17.08;10.65;;;16.50;65.60;;;;;;4178789;28;20463;-64
2022/01/27 06:14:24;;;;;;;20.88;10.05;;;16.50;65.60;;;;;;4178780;28;20045;-64
2022/01/27 06:16:48;;;;;;;20.88;10.18;;;16.50;65.70;;;;;;4183520;28;20585;-64
2022/01/27 06:19:10;;;;;;;20.13;11.07;;;16.40;65.70;;;;;;4194323;28;20067;-64
2022/01/27 06:21:34;;;;;;;16.95;9.75;;;16.40;65.80;;;;;;4178222;28;20044;-64
2022/01/27 06:23:57;;;;;;;19.27;9.65;;;16.40;65.90;;;;;;4178626;28;20068;-64
2022/01/27 06:26:19;;;;;;;15.23;8.43;;;16.40;66.10;;;;;;4178493;28;20366;-64
2022/01/27 06:28:41;;;;;;;15.60;8.70;;;16.30;66.30;;;;;;4178259;28;20047;-64
2022/01/27 06:31:03;;;;;;;18.50;9.70;;;16.30;66.40;;;;;;4177901;28;20053;-64
2022/01/27 06:33:26;;;;;;;19.75;9.30;;;16.30;66.50;;;;;;4178119;28;20064;-64
2022/01/27 06:35:48;;;;;;;15.40;8.32;;;16.30;67.40;;;;;;4178128;28;20053;-64
2022/01/27 06:38:10;;;;;;;15.20;8.95;;;16.30;66.70;;;;;;4177524;28;20041;-64
2022/01/27 06:40:32;;;;;;;14.07;8.82;;;16.20;66.80;;;;;;4174334;28;20130;-63
2022/01/27 06:42:54;;;;;;;17.60;9.00;;;16.20;67.00;;;;;;4177811;28;20132;-64
2022/01/27 06:45:16;;;;;;;12.10;8.05;;;16.30;67.00;;;;;;4177979;28;20048;-64
2022/01/27 06:47:39;;;;;;;17.73;8.88;;;16.40;66.80;;;;;;4192140;28;20055;-63
2022/01/27 06:50:02;;;;;;;13.65;7.53;;;16.50;66.40;;;;;;4160217;28;20049;-65
2022/01/27 06:52:27;;;;;;;12.82;8.30;;;16.50;66.00;;;;;;4161670;28;20053;-63
2022/01/27 06:54:50;;;;;;;12.93;8.40;;;16.50;65.80;;;;;;4161918;28;20052;-65
2022/01/27 06:57:12;;;;;;;14.38;8.25;;;16.60;65.70;;;;;;4182036;28;20560;-64
2022/01/27 06:59:34;;;;;;;10.23;7.30;;;16.60;65.70;;;;;;4179603;28;20045;-65
2022/01/27 07:01:57;;;;;;;12.52;7.07;;;16.60;65.90;;;;;;4177539;28;20564;-65
2022/01/27 07:04:19;;;;;;;13.40;6.70;;;16.60;65.80;;;;;;4177667;28;20079;-65
2022/01/27 07:06:42;;;;;;;12.75;6.95;;;16.60;65.90;;;;;;4178488;28;20075;-65
2022/01/27 07:09:05;;;;;;;12.40;7.10;;;16.60;66.00;;;;;;4177442;28;20052;-66
2022/01/27 07:11:27;;;;;;;20.65;6.97;;;16.60;66.10;;;;;;4176213;28;20527;-66
2022/01/27 07:13:48;;;;;;;12.02;6.75;;;16.60;66.10;;;;;;4177649;28;20048;-66
2022/01/27 07:16:11;;;;;;;12.75;6.80;;;16.60;66.30;;;;;;4177725;28;20060;-65
2022/01/27 07:18:33;;;;;;;11.55;6.43;;;16.50;66.40;;;;;;4176345;28;20118;-66
2022/01/27 07:20:55;;;;;;;12.35;6.13;;;16.50;67.00;;;;;;4177085;28;20089;-64
2022/01/27 07:23:20;;;;;;;8.73;5.30;;;16.60;67.60;;;;;;4177578;28;20049;-65
2022/01/27 07:25:42;;;;;;;11.48;5.78;;;16.60;67.40;;;;;;4177358;28;20481;-64
2022/01/27 07:28:04;;;;;;;8.32;5.35;;;16.60;67.10;;;;;;4177241;28;20045;-64
2022/01/27 07:30:27;;;;;;;10.00;5.82;;;16.60;67.00;;;;;;4177223;28;20164;-64
2022/01/27 07:32:49;;;;;;;12.48;6.32;;;16.60;67.10;;;;;;4177281;28;20532;-64
2022/01/27 07:35:11;;;;;;;8.80;4.72;;;16.60;67.30;;;;;;4176023;28;20056;-64
2022/01/27 07:37:33;;;;;;;9.25;5.82;;;16.50;67.60;;;;;;4177158;28;20056;-62
2022/01/27 07:39:57;;;;;;;9.82;5.90;;;16.60;67.50;;;;;;4179759;28;20512;-64
2022/01/27 07:42:19;;;;;;;7.35;5.30;;;16.50;67.30;;;;;;4173544;28;20080;-63
2022/01/27 07:44:42;;;;;;;10.73;5.78;;;16.60;68.20;;;;;;4178751;28;20464;-63
2022/01/27 07:47:05;;;;;;;9.88;5.90;;;16.60;67.30;;;;;;4174041;28;20056;-63
2022/01/27 07:49:28;;;;;;;11.23;5.88;;;16.50;67.40;;;;;;4174558;28;20056;-63
2022/01/27 07:51:51;;;;;;;9.82;5.97;;;16.50;67.70;;;;;;4174536;28;20473;-63
2022/01/27 07:54:13;;;;;;;10.30;5.18;;;16.40;68.00;;;;;;4173912;28;20056;-63
2022/01/27 07:56:36;;;;;;;13.30;5.70;;;16.30;68.40;;;;;;4174193;28;20528;-63
2022/01/27 07:58:59;;;;;;;12.40;5.70;;;16.40;68.70;;;;;;4173742;28;20134;-64
2022/01/27 08:01:21;;;;;;;11.55;5.45;;;16.40;68.60;;;;;;4174044;28;20052;-63
2022/01/27 08:03:43;;;;;;;12.57;5.90;;;16.40;68.40;;;;;;4173427;28;20047;-63
2022/01/27 08:06:07;;;;;;;12.35;6.40;;;16.40;68.30;;;;;;4173639;28;20064;-64
2022/01/27 08:08:29;;;;;;;11.63;6.40;;;16.40;68.30;;;;;;4173054;28;20064;-66
2022/01/27 08:10:51;;;;;;;11.27;6.15;;;16.30;68.50;;;;;;4173665;28;20545;-63
2022/01/27 08:13:15;;;;;;;18.40;5.70;;;16.30;68.70;;;;;;4172842;28;20064;-64
2022/01/27 08:15:37;;;;;;;13.80;6.25;;;16.20;68.80;;;;;;4174033;28;20052;-63
2022/01/27 08:17:59;;;;;;;13.35;5.82;;;16.20;69.10;;;;;;4173479;28;20970;-65
2022/01/27 08:20:22;;;;;;;13.93;6.60;;;16.20;69.20;;;;;;4173907;28;20052;-64
2022/01/27 08:22:46;;;;;;;15.25;6.47;;;16.20;69.30;;;;;;4174182;28;20481;-64
2022/01/27 08:25:09;;;;;;;17.20;6.43;;;16.20;69.50;;;;;;4174087;28;20048;-65
2022/01/27 08:27:32;;;;;;;17.83;7.00;;;16.20;69.40;;;;;;4173605;28;20159;-61
2022/01/27 08:30:00;;;;;;;17.23;6.85;;;16.20;69.30;;;;;;4174048;28;20060;-61
2022/01/27 08:32:31;;;;;;;14.35;5.10;;;16.30;69.30;;;;;;4174073;28;20535;-62
2022/01/27 08:34:53;;;;;;;;;;;16.30;69.30;;;;;;4174227;28;20049;-61
2022/01/27 08:37:18;;;;;;;12.50;6.03;;;16.20;69.30;;;;;;4173834;28;19925;-62
2022/01/27 08:39:41;;;;;;;11.07;5.30;;;16.20;69.60;;;;;;4174107;28;20051;-61
2022/01/27 08:42:05;;;;;;;14.68;6.30;;;16.20;69.70;;;;;;4172145;28;20121;-62
2022/01/27 08:44:27;;;;;;;14.00;6.28;;;16.20;69.70;;;;;;4173670;28;20048;-61
2022/01/27 08:46:51;;;;;;;16.15;6.05;;;16.20;70.60;;;;;;4171759;28;20525;-61
2022/01/27 08:49:13;;;;;;;13.07;4.82;;;16.20;69.90;;;;;;4174098;28;20084;-62
2022/01/27 08:51:36;;;;;;;17.00;5.05;;;16.20;69.90;;;;;;4173591;28;20050;-62
2022/01/27 08:53:59;;;;;;;20.13;6.03;;;16.20;70.00;;;;;;4173750;28;20079;-62
2022/01/27 08:56:21;;;;;;;14.57;4.68;;;16.10;70.10;;;;;;4173005;28;20060;-60
2022/01/27 08:58:43;;;;;;;15.57;6.28;;;16.10;70.30;;;;;;4174084;28;20049;-60
2022/01/27 09:01:05;;;;;;;17.05;6.00;;;16.10;70.70;;;;;;4173623;28;20061;-61
2022/01/27 09:03:30;;;;;;;16.05;5.43;;;16.00;71.20;;;;;;4173455;28;20060;-62
2022/01/27 09:05:52;;;;;;;14.60;5.22;;;16.10;71.60;;;;;;4174246;28;20334;-61
2022/01/27 09:08:14;;;;;;;15.40;4.72;;;16.20;71.70;;;;;;4171713;28;20053;-60
2022/01/27 09:10:37;;;;;;;18.58;5.40;;;16.30;71.20;;;;;;4173685;28;20405;-61
2022/01/27 09:12:59;;;;;;;14.35;4.35;;;16.30;70.80;;;;;;4173504;28;20061;-61
2022/01/27 09:15:22;;;;;;;14.23;4.88;;;16.30;70.70;;;;;;4172672;28;20049;-61
2022/01/27 09:17:44;;;;;;;17.40;5.35;;;16.40;70.40;;;;;;4173142;28;20425;-61
2022/01/27 09:20:09;;;;;;;15.07;5.10;;;16.40;70.10;;;;;;4173363;28;20052;-61
2022/01/27 09:22:34;;;;;;;18.88;5.75;;;16.50;69.90;;;;;;4172820;28;20104;-61
2022/01/27 09:24:59;;;;;;;18.75;4.43;;;16.40;69.80;;;;;;4172272;28;20049;-61
2022/01/27 09:27:22;;;;;;;11.25;4.43;;;16.40;69.80;;;;;;4172702;28;20053;-62
2022/01/27 09:29:49;;;;;;;15.88;5.22;;;16.40;70.90;;;;;;4173150;28;20053;-61
2022/01/27 09:32:12;;;;;;;12.88;4.15;;;16.40;70.30;;;;;;4173235;28;20048;-60
2022/01/27 09:34:35;;;;;;;14.85;5.32;;;16.40;70.40;;;;;;4173167;28;20499;-61
2022/01/27 09:37:02;;;;;;;12.75;4.00;;;16.30;70.50;;;;;;4173196;28;20384;-61
2022/01/27 09:39:24;;;;;;;13.88;4.05;;;16.30;70.60;;;;;;4173923;28;20076;-61
2022/01/27 09:41:47;;;;;;;10.95;3.88;;;16.30;70.70;;;;;;4175479;28;20048;-61
2022/01/27 09:44:12;;;;;;;11.93;4.13;;;16.30;70.80;;;;;;4175694;28;20049;-61
2022/01/27 09:46:35;;;;;;;12.40;3.63;;;16.30;70.90;;;;;;4177706;28;20397;-60
2022/01/27 09:48:58;;;;;;;13.73;3.55;;;16.20;70.90;;;;;;4175600;28;20447;-61
2022/01/27 09:51:27;;;;;;;10.68;3.53;;;16.20;71.20;;;;;;4175839;28;20075;-61
2022/01/27 09:53:52;;;;;;;10.40;3.30;;;16.10;71.30;;;;;;4175228;28;20044;-61
2022/01/27 09:56:15;;;;;;;13.48;4.18;;;16.10;71.60;;;;;;4174880;28;20052;-62
2022/01/27 09:58:57;;;;;;;15.40;3.83;;;16.10;71.80;;;;;;4174860;28;20041;-61
2022/01/27 10:01:19;;;;;;;13.32;3.40;;;16.00;71.80;;;;;;4175527;28;20070;-61
2022/01/27 10:03:53;;;;;;;15.45;4.10;;;16.00;72.10;;;;;;4175086;28;20048;-61
2022/01/27 10:06:17;;;;;;;16.00;3.90;;;16.10;72.00;;;;;;4174766;28;20049;-61
2022/01/27 10:08:41;;;;;;;15.38;4.25;;;16.20;71.40;;;;;;4178420;28;20099;-61
2022/01/27 10:11:14;;;;;;;11.10;3.70;;;16.30;70.90;;;;;;4178278;28;20138;-60
2022/01/27 10:13:40;;;;;;;19.17;4.30;;;16.40;70.60;;;;;;4177886;28;20056;-61
2022/01/27 10:16:03;;;;;;;16.58;3.78;;;16.40;70.30;;;;;;4177618;28;20041;-62
2022/01/27 10:18:27;;;;;;;12.20;3.05;;;16.50;70.00;;;;;;4176347;28;20071;-61
2022/01/27 10:20:52;;;;;;;11.95;3.30;;;16.50;70.00;;;;;;4177974;28;20134;-62
2022/01/27 10:23:20;;;;;;;14.70;3.15;;;16.40;70.10;;;;;;4178383;28;20049;-61
2022/01/27 10:25:48;;;;;;;13.25;3.15;;;16.40;70.30;;;;;;4178251;28;20114;-61
2022/01/27 10:28:27;;;;;;;13.68;3.33;;;16.30;70.50;;;;;;4162148;28;20072;-61
2022/01/27 10:31:00;;;;;;;10.25;3.47;;;16.30;70.80;;;;;;4188550;28;20083;-61
2022/01/27 10:33:22;;;;;;;9.43;3.33;;;16.30;71.20;;;;;;4161785;28;20065;-61
2022/01/27 10:35:45;;;;;;;13.68;3.35;;;16.30;71.10;;;;;;4170729;28;20068;-60
2022/01/27 10:38:08;;;;;;;16.35;3.22;;;16.30;70.80;;;;;;4178491;28;20064;-61
2022/01/27 10:40:33;;;;;;;12.30;3.00;;;16.40;70.60;;;;;;4179041;28;20056;-61
2022/01/27 10:43:10;;;;;;;12.88;2.80;;;16.40;70.40;;;;;;4178925;28;20048;-61
2022/01/27 10:45:34;;;;;;;13.65;2.72;;;16.50;70.20;;;;;;4178236;28;20040;-61
2022/01/27 10:48:07;;;;;;;13.73;3.97;;;16.50;70.10;;;;;;4178065;28;20127;-61
2022/01/27 10:50:31;;;;;;;12.07;3.40;;;16.50;70.00;;;;;;4176796;28;20048;-62
2022/01/27 10:52:57;;;;;;;14.05;2.75;;;16.50;70.10;;;;;;4181440;28;20131;-61
2022/01/27 10:55:21;;;;;;;14.23;3.20;;;16.50;70.20;;;;;;4181533;28;20086;-61
2022/01/27 10:57:49;;;;;;;14.95;2.88;;;16.50;70.10;;;;;;4194867;28;20044;-61
2022/01/27 11:00:15;;;;;;;12.20;3.35;;;16.50;70.10;;;;;;4194394;28;20098;-61
2022/01/27 11:02:51;;;;;;;15.70;3.28;;;16.70;69.70;;;;;;4194607;28;20113;-61
2022/01/27 11:05:17;;;;;;;13.23;2.63;;;16.80;69.10;;;;;;4183595;28;20041;-61
2022/01/27 11:07:39;;;;;;;16.88;3.67;;;16.90;68.60;;;;;;4177760;28;20069;-61
2022/01/27 11:10:01;;;;;;;12.63;2.92;;;17.00;68.30;;;;;;4177820;28;20052;-61
2022/01/27 11:12:23;;;;;;;11.98;3.17;;;17.00;68.20;;;;;;4177655;28;20060;-61
2022/01/27 11:14:48;;;;;;;11.40;2.90;;;16.90;68.30;;;;;;4177122;28;20628;-61
2022/01/27 11:17:17;;;;;;;13.13;2.88;;;16.90;68.50;;;;;;4177406;28;20063;-61
2022/01/27 11:20:00;;;;;;;17.95;3.63;;;16.80;68.70;;;;;;4177075;28;20045;-60
2022/01/27 11:22:42;;;;;;;12.15;3.03;;;16.70;69.00;;;;;;4177446;28;20049;-61
2022/01/27 11:25:49;;;;;;;16.35;2.97;;;16.70;69.30;;;;;;4178582;28;20052;-61
2022/01/27 11:27:54;;;;;;;10.68;3.17;;;16.60;69.50;;;;;;4177242;28;20049;-61
2022/01/27 11:30:20;;;;;;;15.32;3.67;;;16.60;69.90;;;;;;4168556;28;20500;-61
2022/01/27 11:32:50;;;;;;;14.95;3.60;;;16.50;70.20;;;;;;4177327;28;20052;-61
2022/01/27 11:35:21;;;;;;;13.25;3.30;;;16.50;71.20;;;;;;4184236;28;20476;-61
2022/01/27 11:37:50;;;;;;;14.02;3.40;;;16.50;70.50;;;;;;4182670;28;20041;-61
2022/01/27 11:40:13;;;;;;;17.92;3.92;;;16.50;70.30;;;;;;4177170;28;20569;-61
2022/01/27 11:43:12;;;;;;;12.77;3.20;;;16.40;70.40;;;;;;4177087;28;20238;-61
2022/01/27 11:45:37;;;;;;;12.63;3.03;;;16.40;70.60;;;;;;4187409;28;20480;-61
2022/01/27 11:48:06;;;;;;;14.05;3.75;;;16.40;70.90;;;;;;4180178;28;20106;-61
2022/01/27 11:50:34;;;;;;;16.17;3.40;;;16.40;71.00;;;;;;4177033;28;20057;-61
2022/01/27 11:52:56;;;;;;;16.80;3.25;;;16.50;70.80;;;;;;4175309;28;20052;-60
2022/01/27 11:55:45;;;;;;;12.55;3.42;;;16.50;71.50;;;;;;4174494;28;20144;-61
2022/01/27 11:58:17;;;;;;;12.43;3.53;;;16.50;70.60;;;;;;4173487;28;20109;-61
2022/01/27 12:00:39;;;;;;;16.65;3.67;;;16.50;70.60;;;;;;4174295;28;20461;-61
2022/01/27 12:03:14;;;;;;;15.13;3.08;;;16.50;70.50;;;;;;4173745;28;20052;-61
2022/01/27 12:05:40;;;;;;;14.95;3.00;;;16.50;70.50;;;;;;4173766;28;20705;-61
2022/01/27 12:08:24;;;;;;;14.45;3.28;;;16.50;70.60;;;;;;4174473;28;20374;-60
2022/01/27 12:11:09;;;;;;;16.45;3.40;;;16.50;70.60;;;;;;4174185;28;20447;-61
2022/01/27 12:14:00;;;;;;;10.75;2.58;;;16.50;70.60;;;;;;4174044;28;20561;-62
2022/01/27 12:19:06;;;;;;;7.07;1.85;;;16.60;70.50;;;;;;4173678;28;20160;-62
2022/01/27 12:21:31;;;;;;;16.08;3.20;;;16.50;70.50;;;;;;4174674;28;20063;-61
2022/01/27 12:24:22;;;;;;;13.82;2.92;;;16.50;70.60;;;;;;4173947;28;20084;-61
2022/01/27 12:26:46;;;;;;;16.15;3.25;;;16.50;70.60;;;;;;4174049;28;20037;-61
2022/01/27 12:29:09;;;;;;;17.65;3.30;;;16.50;70.80;;;;;;4173528;28;20122;-62
2022/01/27 12:31:31;;;;;;;20.20;3.70;;;16.40;70.90;;;;;;4174165;28;20045;-61
2022/01/27 12:33:53;;;;;;;13.75;2.42;;;16.40;71.20;;;;;;4173189;28;20132;-61
2022/01/27 12:36:22;;;;;;;17.50;3.83;;;16.40;71.30;;;;;;4173921;28;20514;-61
2022/01/27 12:38:45;;;;;;;15.57;2.83;;;16.40;71.20;;;;;;4173866;28;20048;-61
2022/01/27 12:41:07;;;;;;;20.42;4.00;;;16.50;71.10;;;;;;4173957;28;20059;-61
2022/01/27 12:43:29;;;;;;;16.38;3.22;;;16.50;70.80;;;;;;4172032;28;20420;-61
2022/01/27 12:45:51;;;;;;;15.68;2.70;;;16.50;70.60;;;;;;4172471;28;20057;-61